Time;durP1;ratioP1;P1;durP2;ratioP2;P2;SDS_P1;SDS_P2;PMS_P1;PMS_P2;Temp;Humidity;BMP_temperature;BMP_pressure;BME280_temperature;BME280_humidity;BME280_pressure;Samples;Min_cycle;Max_cycle;Signal;HPM_P1;HPM_P2
2023/08/14 00:01:12;;;;;;;3.47;2.45;;;16.10;99.90;;;;;;5029605;28;20045;-87
2023/08/14 00:03:37;;;;;;;4.30;2.78;;;16.10;99.90;;;;;;5031403;28;20029;-86
2023/08/14 00:06:03;;;;;;;3.03;2.20;;;16.00;99.90;;;;;;5029547;28;20018;-86
2023/08/14 00:08:28;;;;;;;2.80;2.60;;;16.00;99.90;;;;;;5028759;28;20010;-86
2023/08/14 00:10:55;;;;;;;3.63;2.55;;;15.90;99.90;;;;;;5015423;28;20026;-86
2023/08/14 00:13:21;;;;;;;3.45;2.33;;;16.00;99.90;;;;;;5025068;28;20018;-85
2023/08/14 00:15:48;;;;;;;4.93;3.15;;;15.90;99.90;;;;;;5029425;28;20114;-85
2023/08/14 00:18:13;;;;;;;4.95;2.50;;;15.90;99.90;;;;;;5030808;28;20021;-86
2023/08/14 00:20:39;;;;;;;3.90;2.72;;;15.90;99.90;;;;;;5031745;28;20456;-85
2023/08/14 00:23:04;;;;;;;3.75;2.17;;;15.90;99.90;;;;;;5031762;28;20039;-86
2023/08/14 00:25:30;;;;;;;2.88;2.60;;;15.90;99.90;;;;;;5022637;28;20377;-86
2023/08/14 00:27:56;;;;;;;4.68;2.88;;;15.90;99.90;;;;;;5031080;28;20086;-86
2023/08/14 00:30:22;;;;;;;4.68;2.88;;;15.90;99.90;;;;;;5030114;28;20032;-86
2023/08/14 00:32:48;;;;;;;4.75;2.95;;;15.90;99.90;;;;;;5026334;28;20021;-86
2023/08/14 00:35:14;;;;;;;3.95;2.75;;;15.90;99.90;;;;;;5030727;28;20386;-85
2023/08/14 00:37:41;;;;;;;4.88;2.75;;;15.90;99.90;;;;;;5030426;28;20028;-86
2023/08/14 00:40:09;;;;;;;4.95;2.95;;;15.90;99.90;;;;;;5027715;28;20026;-85
2023/08/14 00:42:34;;;;;;;4.10;2.78;;;15.80;99.90;;;;;;5031166;28;20045;-86
2023/08/14 00:45:00;;;;;;;5.55;3.75;;;15.90;99.90;;;;;;5036111;28;20018;-86
2023/08/14 00:47:25;;;;;;;5.00;2.90;;;15.90;99.90;;;;;;5033635;28;20084;-86
2023/08/14 00:49:52;;;;;;;3.83;2.97;;;15.80;99.90;;;;;;5026708;28;20124;-85
2023/08/14 00:52:18;;;;;;;3.83;2.50;;;15.90;99.90;;;;;;5018922;28;20061;-85
2023/08/14 00:54:44;;;;;;;3.03;2.70;;;15.90;99.90;;;;;;5030375;28;20033;-85
2023/08/14 00:57:09;;;;;;;5.28;3.15;;;15.80;99.90;;;;;;5030025;28;20463;-86
2023/08/14 00:59:35;;;;;;;5.05;2.65;;;15.80;99.90;;;;;;5026125;28;20038;-86
2023/08/14 01:02:01;;;;;;;2.55;2.35;;;15.80;99.90;;;;;;5023300;28;20026;-85
2023/08/14 01:04:26;;;;;;;4.85;2.70;;;15.80;99.90;;;;;;5027320;28;20029;-86
2023/08/14 01:06:52;;;;;;;3.22;2.40;;;15.80;99.90;;;;;;5025793;28;20018;-86
2023/08/14 01:09:19;;;;;;;3.67;2.28;;;15.80;99.90;;;;;;5030597;28;20026;-86
2023/08/14 01:12:07;;;;;;;3.95;2.50;;;15.80;99.90;;;;;;5024911;28;20030;-85
2023/08/14 01:14:34;;;;;;;4.47;2.60;;;15.80;99.90;;;;;;5031312;28;20400;-85
2023/08/14 01:17:06;;;;;;;4.65;2.90;;;15.80;99.90;;;;;;5018469;28;20503;-86
2023/08/14 01:19:36;;;;;;;4.35;2.65;;;15.70;99.90;;;;;;5032826;28;20059;-85
2023/08/14 01:22:14;;;;;;;4.63;2.70;;;15.70;99.90;;;;;;5025780;28;20034;-85
2023/08/14 01:24:39;;;;;;;5.32;3.15;;;15.70;99.90;;;;;;5026049;28;20033;-85
2023/08/14 01:27:05;;;;;;;2.50;2.20;;;15.70;99.90;;;;;;5028760;28;20018;-86
2023/08/14 01:29:31;;;;;;;4.65;2.72;;;15.70;99.90;;;;;;5022312;28;20037;-86
2023/08/14 01:31:56;;;;;;;3.33;2.90;;;15.70;99.90;;;;;;5030486;28;20026;-87
2023/08/14 01:34:23;;;;;;;4.25;2.33;;;15.60;99.90;;;;;;5027744;28;20112;-85
2023/08/14 01:37:21;;;;;;;2.97;2.30;;;15.60;99.90;;;;;;5032784;28;20023;-86
2023/08/14 01:40:06;;;;;;;4.10;2.53;;;15.60;99.90;;;;;;5027289;28;20021;-85
2023/08/14 01:42:37;;;;;;;4.20;2.38;;;15.60;99.90;;;;;;5020868;28;20830;-86
2023/08/14 01:45:09;;;;;;;3.60;2.42;;;15.50;99.90;;;;;;5023682;28;20051;-86
2023/08/14 01:47:37;;;;;;;3.25;2.40;;;15.50;99.90;;;;;;5024783;28;20106;-86
2023/08/14 01:50:03;;;;;;;2.58;2.38;;;15.50;99.90;;;;;;5029719;28;20036;-85
2023/08/14 01:52:30;;;;;;;2.83;1.92;;;15.40;99.90;;;;;;5021046;28;20068;-86
2023/08/14 01:55:00;;;;;;;3.50;2.60;;;15.40;99.90;;;;;;5024620;28;20419;-85
2023/08/14 01:57:26;;;;;;;2.70;2.33;;;15.40;99.90;;;;;;5024042;28;20497;-85
2023/08/14 01:59:51;;;;;;;2.83;2.50;;;15.40;99.90;;;;;;5027841;28;20040;-85
2023/08/14 02:02:17;;;;;;;4.68;2.58;;;15.40;99.90;;;;;;5026139;28;20042;-86
2023/08/14 02:04:42;;;;;;;5.80;2.63;;;15.30;99.90;;;;;;5026988;28;20021;-85
2023/08/14 02:07:11;;;;;;;3.10;2.80;;;15.40;99.90;;;;;;5028846;28;20033;-86
2023/08/14 02:09:37;;;;;;;3.35;2.72;;;15.30;99.90;;;;;;5026039;28;20132;-87
2023/08/14 02:12:03;;;;;;;3.50;2.40;;;15.30;99.90;;;;;;5028424;28;20129;-86
2023/08/14 02:14:29;;;;;;;2.60;2.40;;;15.30;99.90;;;;;;5024680;28;20022;-85
2023/08/14 02:16:55;;;;;;;2.95;2.00;;;15.30;99.90;;;;;;5027003;28;20983;-86
2023/08/14 02:19:20;;;;;;;2.58;2.35;;;15.30;99.90;;;;;;5025515;28;20108;-86
2023/08/14 02:21:46;;;;;;;4.50;2.70;;;15.30;99.90;;;;;;5028424;28;20022;-86
2023/08/14 02:24:11;;;;;;;4.55;2.58;;;15.20;99.90;;;;;;5028282;28;20437;-85
2023/08/14 02:26:37;;;;;;;5.05;2.53;;;15.20;99.90;;;;;;5024316;28;20021;-85
2023/08/14 02:29:03;;;;;;;2.90;2.70;;;15.20;99.90;;;;;;5028224;28;20029;-86
2023/08/14 02:31:29;;;;;;;4.30;2.33;;;15.20;99.90;;;;;;5025566;28;20033;-85
2023/08/14 02:34:01;;;;;;;5.68;3.00;;;15.20;99.90;;;;;;5027369;28;20030;-85
2023/08/14 02:36:28;;;;;;;3.97;2.15;;;15.20;99.90;;;;;;5031880;28;20026;-86
2023/08/14 02:38:54;;;;;;;2.70;2.50;;;15.20;99.90;;;;;;5028841;28;20495;-85
2023/08/14 02:41:20;;;;;;;3.92;2.50;;;15.20;99.90;;;;;;5030898;28;20026;-87
2023/08/14 02:43:46;;;;;;;4.93;3.20;;;15.10;99.90;;;;;;5028460;28;20116;-86
2023/08/14 02:46:12;;;;;;;2.42;2.22;;;15.10;99.90;;;;;;5020701;28;20488;-86
2023/08/14 02:48:37;;;;;;;5.47;3.65;;;15.10;99.90;;;;;;5029556;28;20500;-85
2023/08/14 02:51:03;;;;;;;2.95;2.65;;;15.10;99.90;;;;;;5028257;28;20029;-85
2023/08/14 02:53:29;;;;;;;8.15;2.40;;;15.00;99.90;;;;;;5021662;28;20037;-87
2023/08/14 02:55:55;;;;;;;2.40;2.20;;;15.00;99.90;;;;;;5028518;28;20097;-85
2023/08/14 02:58:21;;;;;;;2.95;2.60;;;15.00;99.90;;;;;;5029032;28;20101;-86
2023/08/14 03:00:47;;;;;;;2.13;2.00;;;15.00;99.90;;;;;;5026078;28;20537;-86
2023/08/14 03:03:13;;;;;;;2.53;2.30;;;15.00;99.90;;;;;;5025212;28;20172;-87
2023/08/14 03:05:39;;;;;;;5.80;2.78;;;14.90;99.90;;;;;;5029031;28;20523;-86
2023/08/14 03:08:05;;;;;;;2.67;2.47;;;14.90;99.90;;;;;;5027236;28;20030;-86
2023/08/14 03:10:30;;;;;;;4.05;2.83;;;14.90;99.90;;;;;;5026375;28;20101;-87
2023/08/14 03:12:57;;;;;;;4.43;2.60;;;14.90;99.90;;;;;;5021428;28;20025;-85
2023/08/14 03:15:22;;;;;;;4.00;2.80;;;14.90;99.90;;;;;;5023623;28;20072;-86
2023/08/14 03:17:48;;;;;;;3.30;2.70;;;14.80;99.90;;;;;;5030234;28;20017;-86
2023/08/14 03:20:14;;;;;;;3.22;2.58;;;14.80;99.90;;;;;;5024048;28;20412;-86
2023/08/14 03:22:39;;;;;;;3.78;3.03;;;14.80;99.90;;;;;;5021868;28;20022;-86
2023/08/14 03:25:05;;;;;;;3.97;2.70;;;14.80;99.90;;;;;;5021307;28;20022;-85
2023/08/14 03:27:31;;;;;;;3.00;2.67;;;14.80;99.90;;;;;;5024451;28;20602;-86
2023/08/14 03:29:56;;;;;;;3.60;2.30;;;14.80;99.90;;;;;;5032009;28;20034;-87
2023/08/14 03:32:22;;;;;;;3.58;2.80;;;14.70;99.90;;;;;;5026237;28;20054;-86
2023/08/14 03:34:47;;;;;;;3.67;3.30;;;14.70;99.90;;;;;;5021366;28;20051;-86
2023/08/14 03:37:13;;;;;;;14.02;3.65;;;14.70;99.90;;;;;;5029706;28;20036;-85
2023/08/14 03:39:39;;;;;;;3.25;2.88;;;14.70;99.90;;;;;;5028478;28;20064;-86
2023/08/14 03:42:05;;;;;;;5.68;3.25;;;14.70;99.90;;;;;;5026595;28;20025;-85
2023/08/14 03:44:30;;;;;;;3.63;2.63;;;14.70;99.90;;;;;;5016921;28;20065;-85
2023/08/14 03:46:56;;;;;;;5.05;2.15;;;14.70;99.90;;;;;;5025452;28;21445;-85
2023/08/14 03:49:25;;;;;;;3.45;2.92;;;14.60;99.90;;;;;;5017302;28;20033;-86
2023/08/14 03:51:50;;;;;;;3.80;3.05;;;14.60;99.90;;;;;;5015147;28;20128;-86
2023/08/14 03:54:16;;;;;;;5.05;2.63;;;14.60;99.90;;;;;;5040547;28;20014;-87
2023/08/14 03:56:41;;;;;;;3.70;2.95;;;14.60;99.90;;;;;;5018125;28;20080;-85
2023/08/14 03:59:07;;;;;;;3.75;3.00;;;14.50;99.90;;;;;;5025345;28;20026;-86
2023/08/14 04:01:33;;;;;;;4.85;2.88;;;14.50;99.90;;;;;;5020434;28;20053;-86
2023/08/14 04:03:58;;;;;;;5.40;2.78;;;14.50;99.90;;;;;;5014264;28;20121;-86
2023/08/14 04:06:24;;;;;;;3.65;2.60;;;14.50;99.90;;;;;;5022450;28;20256;-86
2023/08/14 04:08:49;;;;;;;5.07;3.00;;;14.50;99.90;;;;;;5009355;28;20325;-85
2023/08/14 04:11:15;;;;;;;2.70;2.45;;;14.50;99.90;;;;;;5025700;28;20018;-87
2023/08/14 04:13:40;;;;;;;2.95;2.47;;;14.40;99.90;;;;;;5026250;28;20022;-87
2023/08/14 04:16:06;;;;;;;4.47;2.78;;;14.50;99.90;;;;;;5035095;28;20026;-87
2023/08/14 04:18:31;;;;;;;3.90;2.80;;;14.50;99.90;;;;;;5029651;28;20492;-86
2023/08/14 04:20:57;;;;;;;2.63;2.42;;;14.50;99.90;;;;;;5032017;28;20025;-86
2023/08/14 04:23:24;;;;;;;3.92;2.97;;;14.50;99.90;;;;;;5030556;28;20024;-87
2023/08/14 04:25:53;;;;;;;5.10;3.05;;;14.40;99.90;;;;;;5022827;28;20083;-86
2023/08/14 04:28:19;;;;;;;4.28;3.00;;;14.50;99.90;;;;;;5028772;28;20037;-85
2023/08/14 04:30:44;;;;;;;6.43;2.75;;;14.50;99.90;;;;;;5028815;28;20034;-86
2023/08/14 04:33:10;;;;;;;3.65;2.78;;;14.50;99.90;;;;;;5031959;28;20094;-86
2023/08/14 04:35:37;;;;;;;4.78;2.70;;;14.50;99.90;;;;;;5026265;28;20037;-86
2023/08/14 04:38:04;;;;;;;9.13;3.13;;;14.50;99.90;;;;;;5023457;28;20035;-86
2023/08/14 04:40:29;;;;;;;3.92;3.17;;;14.50;99.90;;;;;;5028557;28;20527;-88
2023/08/14 04:42:55;;;;;;;5.57;2.78;;;14.60;99.90;;;;;;5030423;28;20025;-86
2023/08/14 04:45:21;;;;;;;6.00;3.00;;;14.60;99.90;;;;;;5018986;28;20045;-86
2023/08/14 04:47:47;;;;;;;3.85;2.45;;;14.60;99.90;;;;;;5025411;28;20017;-86
2023/08/14 04:50:12;;;;;;;6.38;2.83;;;14.60;99.90;;;;;;5023055;28;20034;-86
2023/08/14 04:52:38;;;;;;;3.83;3.00;;;14.70;99.90;;;;;;5025619;28;20026;-86
2023/08/14 04:55:05;;;;;;;4.05;2.60;;;14.70;99.90;;;;;;5024397;28;20022;-85
2023/08/14 04:57:31;;;;;;;7.93;3.40;;;14.70;99.90;;;;;;5026143;28;20091;-87
2023/08/14 04:59:56;;;;;;;3.65;2.90;;;14.80;99.90;;;;;;5028599;28;20108;-86
2023/08/14 05:02:22;;;;;;;4.75;3.13;;;14.80;99.90;;;;;;5028270;28;20081;-86
2023/08/14 05:04:47;;;;;;;5.25;3.40;;;14.90;99.90;;;;;;5024551;28;20101;-86
2023/08/14 05:07:13;;;;;;;3.65;3.17;;;14.90;99.90;;;;;;5027711;28;20029;-86
2023/08/14 05:09:38;;;;;;;5.22;3.22;;;14.90;99.90;;;;;;5027116;28;20473;-86
2023/08/14 05:12:04;;;;;;;6.50;3.22;;;15.00;99.90;;;;;;5026118;28;20468;-86
2023/08/14 05:14:30;;;;;;;4.97;3.15;;;15.00;99.90;;;;;;5027303;28;20480;-86
2023/08/14 05:16:55;;;;;;;3.45;2.90;;;15.00;99.90;;;;;;5024288;28;20030;-86
2023/08/14 05:19:21;;;;;;;7.93;3.55;;;15.00;99.90;;;;;;5023416;28;20057;-86
2023/08/14 05:21:46;;;;;;;3.95;3.08;;;15.00;99.90;;;;;;5027008;28;20014;-86
2023/08/14 05:24:15;;;;;;;3.70;2.83;;;15.10;99.90;;;;;;5028606;28;20565;-86
2023/08/14 05:26:41;;;;;;;3.72;2.97;;;15.10;99.90;;;;;;5028125;28;20029;-86
2023/08/14 05:29:07;;;;;;;3.10;2.75;;;15.10;99.90;;;;;;5026686;28;20029;-86
2023/08/14 05:31:32;;;;;;;3.40;3.10;;;15.20;99.90;;;;;;5027729;28;20052;-86
2023/08/14 05:33:58;;;;;;;3.67;3.20;;;15.20;99.90;;;;;;5023168;28;20026;-87
2023/08/14 05:36:23;;;;;;;11.38;2.97;;;15.20;99.90;;;;;;5028945;28;20087;-86
2023/08/14 05:38:49;;;;;;;3.80;3.47;;;15.30;99.90;;;;;;5027331;28;20068;-86
2023/08/14 05:41:15;;;;;;;3.22;2.90;;;15.30;99.90;;;;;;5028440;28;20392;-86
2023/08/14 05:43:40;;;;;;;7.53;3.47;;;15.30;99.90;;;;;;5029082;28;20021;-87
2023/08/14 05:46:06;;;;;;;3.83;3.13;;;15.40;99.90;;;;;;5030255;28;20634;-86
2023/08/14 05:48:32;;;;;;;3.30;2.90;;;15.40;99.90;;;;;;5027623;28;20037;-86
2023/08/14 05:50:57;;;;;;;4.78;3.50;;;15.50;99.90;;;;;;5028303;28;20423;-86
2023/08/14 05:53:23;;;;;;;6.30;3.75;;;15.50;99.90;;;;;;5031322;28;20607;-87
2023/08/14 05:55:48;;;;;;;7.57;3.00;;;15.50;99.90;;;;;;5022763;28;20113;-86
2023/08/14 05:58:14;;;;;;;3.95;3.17;;;15.60;99.90;;;;;;5030256;28;20547;-86
2023/08/14 06:00:40;;;;;;;5.30;3.40;;;15.60;99.90;;;;;;5021367;28;20401;-86
2023/08/14 06:03:07;;;;;;;4.80;3.25;;;15.70;99.90;;;;;;5024592;28;20030;-86
2023/08/14 06:05:33;;;;;;;6.97;4.00;;;15.70;99.90;;;;;;5016717;28;20084;-86
2023/08/14 06:07:58;;;;;;;6.88;3.35;;;15.80;99.90;;;;;;5026315;28;20029;-86
2023/08/14 06:10:24;;;;;;;4.40;3.15;;;15.80;99.90;;;;;;5030103;28;20099;-86
2023/08/14 06:12:51;;;;;;;3.58;3.28;;;15.90;99.90;;;;;;5021853;28;20014;-86
2023/08/14 06:15:18;;;;;;;14.57;12.65;;;16.00;99.90;;;;;;5027024;28;20018;-86
2023/08/14 06:17:44;;;;;;;8.20;6.15;;;16.10;99.90;;;;;;5029102;28;20021;-85
2023/08/14 06:20:11;;;;;;;6.78;4.20;;;16.10;99.90;;;;;;5026862;28;20033;-86
2023/08/14 06:22:44;;;;;;;7.07;3.78;;;16.30;99.90;;;;;;5027303;28;20496;-85
2023/08/14 06:25:14;;;;;;;4.07;3.35;;;16.30;99.90;;;;;;5020437;28;20022;-85
2023/08/14 06:27:40;;;;;;;5.20;3.13;;;16.40;99.90;;;;;;5028103;28;20104;-85
2023/08/14 06:30:10;;;;;;;7.70;3.92;;;16.50;99.90;;;;;;5020165;28;20052;-85
2023/08/14 06:32:37;;;;;;;6.43;3.60;;;16.60;99.90;;;;;;5022225;28;20026;-85
2023/08/14 06:35:03;;;;;;;7.20;3.60;;;16.70;99.90;;;;;;5019909;28;20030;-86
2023/08/14 06:37:29;;;;;;;5.57;3.35;;;16.80;99.90;;;;;;5020210;28;20026;-85
2023/08/14 06:39:55;;;;;;;7.80;3.25;;;17.00;99.90;;;;;;5026232;28;20037;-85
2023/08/14 06:42:20;;;;;;;6.65;4.07;;;17.10;99.90;;;;;;5019933;28;20393;-85
2023/08/14 06:44:46;;;;;;;5.38;3.08;;;17.20;99.90;;;;;;5028031;28;20014;-85
2023/08/14 06:47:12;;;;;;;4.40;2.90;;;17.20;99.90;;;;;;5020350;28;20076;-85
2023/08/14 06:49:37;;;;;;;5.40;3.50;;;17.30;99.90;;;;;;5021461;28;20542;-85
2023/08/14 06:52:03;;;;;;;4.80;3.03;;;17.40;99.90;;;;;;5024057;28;20048;-86
2023/08/14 06:54:29;;;;;;;4.10;3.65;;;17.50;99.90;;;;;;5018797;28;20401;-86
2023/08/14 06:56:54;;;;;;;5.47;3.10;;;17.60;99.90;;;;;;5015544;28;20033;-85
2023/08/14 06:59:20;;;;;;;5.25;3.05;;;17.70;99.90;;;;;;5019490;28;20038;-85
2023/08/14 07:01:45;;;;;;;3.60;3.00;;;17.80;99.90;;;;;;5021935;28;20031;-85
2023/08/14 07:04:11;;;;;;;5.38;3.75;;;17.90;99.90;;;;;;5020294;28;20056;-85
2023/08/14 07:06:37;;;;;;;3.70;3.08;;;18.10;99.90;;;;;;5021328;28;20110;-85
2023/08/14 07:09:02;;;;;;;9.52;3.92;;;18.20;99.90;;;;;;5019824;28;20100;-85
2023/08/14 07:11:31;;;;;;;4.90;3.28;;;18.30;99.90;;;;;;5020912;28;20022;-85
2023/08/14 07:13:59;;;;;;;6.25;4.25;;;18.50;99.90;;;;;;5021228;28;20378;-85
2023/08/14 07:16:24;;;;;;;5.90;4.38;;;18.70;99.90;;;;;;5024063;28;20034;-85
2023/08/14 07:18:50;;;;;;;6.93;3.92;;;19.00;99.90;;;;;;5014239;28;20049;-86
2023/08/14 07:21:15;;;;;;;4.22;3.47;;;19.20;99.90;;;;;;5019050;28;20021;-84
2023/08/14 07:23:41;;;;;;;5.68;3.13;;;19.40;99.90;;;;;;5022790;28;20026;-86
2023/08/14 07:26:11;;;;;;;6.60;3.55;;;19.60;99.90;;;;;;5023724;28;20030;-85
2023/08/14 07:28:38;;;;;;;6.03;3.53;;;19.70;99.90;;;;;;5021840;28;20036;-85
2023/08/14 07:31:04;;;;;;;4.60;2.80;;;19.90;99.90;;;;;;5022120;28;20034;-85
2023/08/14 07:33:30;;;;;;;11.07;3.30;;;19.90;99.90;;;;;;5022696;28;20536;-84
2023/08/14 07:35:56;;;;;;;4.70;2.90;;;20.00;99.90;;;;;;5024030;28;20040;-85
2023/08/14 07:38:22;;;;;;;7.35;3.35;;;20.10;99.90;;;;;;5021999;28;20022;-85
2023/08/14 07:40:47;;;;;;;4.15;3.25;;;20.30;99.90;;;;;;5023217;28;20048;-85
2023/08/14 07:43:13;;;;;;;6.45;3.17;;;20.40;99.90;;;;;;5023311;28;20025;-85
2023/08/14 07:45:38;;;;;;;7.57;2.95;;;20.60;99.90;;;;;;5019281;28;20024;-85
2023/08/14 07:48:04;;;;;;;3.05;2.50;;;20.70;99.90;;;;;;5025739;28;20108;-85
2023/08/14 07:50:30;;;;;;;6.10;3.08;;;20.90;99.90;;;;;;5020070;28;20029;-86
2023/08/14 07:52:55;;;;;;;4.25;2.47;;;21.00;99.90;;;;;;5025687;28;20056;-85
2023/08/14 07:55:21;;;;;;;6.28;2.60;;;21.10;99.90;;;;;;5029367;28;20029;-85
2023/08/14 07:57:46;;;;;;;4.07;2.78;;;21.30;99.90;;;;;;5023570;28;20080;-85
2023/08/14 08:00:16;;;;;;;3.17;2.45;;;21.40;99.90;;;;;;5013871;28;20452;-84
2023/08/14 08:02:42;;;;;;;4.72;3.33;;;21.40;99.90;;;;;;5033457;28;20109;-86
2023/08/14 08:05:08;;;;;;;3.47;2.80;;;21.50;99.90;;;;;;5047619;28;20005;-86
2023/08/14 08:07:33;;;;;;;9.02;2.63;;;21.60;99.90;;;;;;5042947;28;20053;-86
2023/08/14 08:09:59;;;;;;;5.38;2.33;;;21.70;99.90;;;;;;5029504;28;20045;-86
2023/08/14 08:12:25;;;;;;;6.35;3.08;;;21.80;99.90;;;;;;5027294;28;20055;-85
2023/08/14 08:14:50;;;;;;;3.08;2.30;;;21.80;99.90;;;;;;5028111;28;20017;-84
2023/08/14 08:17:18;;;;;;;6.35;2.45;;;21.90;99.90;;;;;;5028693;28;20052;-85
2023/08/14 08:19:46;;;;;;;3.78;2.70;;;22.00;99.90;;;;;;5017976;28;20033;-84
2023/08/14 08:22:12;;;;;;;5.25;2.70;;;22.10;99.90;;;;;;5029222;28;20025;-85
2023/08/14 08:24:37;;;;;;;3.35;2.50;;;22.10;99.90;;;;;;5025285;28;20021;-85
2023/08/14 08:27:03;;;;;;;4.32;2.70;;;22.20;99.90;;;;;;5022403;28;20026;-85
2023/08/14 08:29:28;;;;;;;5.70;2.30;;;22.30;99.90;;;;;;5026477;28;20432;-85
2023/08/14 08:31:54;;;;;;;2.50;1.98;;;22.30;99.90;;;;;;5027692;28;20043;-86
2023/08/14 08:34:20;;;;;;;4.07;2.17;;;22.40;99.90;;;;;;5026648;28;20026;-85
2023/08/14 08:36:46;;;;;;;4.10;2.25;;;22.50;99.90;;;;;;5023549;28;20068;-85
2023/08/14 08:39:11;;;;;;;6.10;2.55;;;22.50;99.90;;;;;;5028306;28;20025;-86
2023/08/14 08:41:40;;;;;;;5.82;2.40;;;22.60;99.90;;;;;;5023851;28;20030;-85
2023/08/14 08:44:26;;;;;;;3.20;1.92;;;22.70;99.90;;;;;;5027203;28;20018;-85
2023/08/14 08:47:15;;;;;;;3.33;2.45;;;22.80;99.90;;;;;;5016872;28;20025;-85
2023/08/14 08:49:41;;;;;;;5.45;2.17;;;22.80;99.90;;;;;;5025331;28;20061;-86
2023/08/14 08:52:08;;;;;;;4.45;2.50;;;22.90;99.90;;;;;;5025145;28;20026;-85
2023/08/14 08:54:34;;;;;;;4.63;2.40;;;22.80;99.90;;;;;;5024464;28;20030;-85
2023/08/14 08:57:00;;;;;;;3.90;2.05;;;22.80;99.90;;;;;;5026630;28;20030;-86
2023/08/14 08:59:29;;;;;;;2.65;2.00;;;22.80;99.90;;;;;;5015010;28;20038;-84
2023/08/14 09:01:55;;;;;;;6.25;3.00;;;22.80;99.90;;;;;;5025001;28;20140;-85
2023/08/14 09:04:20;;;;;;;4.93;2.13;;;22.80;99.90;;;;;;5021492;28;20034;-84
2023/08/14 09:06:46;;;;;;;4.78;2.58;;;22.90;99.90;;;;;;5020962;28;20089;-84
2023/08/14 09:09:13;;;;;;;6.78;2.72;;;22.90;99.90;;;;;;5020331;28;20021;-84
2023/08/14 09:11:39;;;;;;;5.22;2.88;;;23.00;99.90;;;;;;5024204;28;20025;-86
2023/08/14 09:14:05;;;;;;;9.07;2.10;;;23.00;99.90;;;;;;5027095;28;20025;-85
2023/08/14 09:16:31;;;;;;;4.28;2.45;;;23.10;99.90;;;;;;5024840;28;20080;-84
2023/08/14 09:18:58;;;;;;;5.50;2.30;;;23.10;99.90;;;;;;5031178;28;20029;-85
2023/08/14 09:21:24;;;;;;;2.45;1.95;;;23.10;99.90;;;;;;5025399;28;20029;-85
2023/08/14 09:23:50;;;;;;;4.80;2.30;;;23.20;99.90;;;;;;5014244;28;20021;-85
2023/08/14 09:26:16;;;;;;;2.60;2.30;;;23.20;99.90;;;;;;5025724;28;20025;-85
2023/08/14 09:28:42;;;;;;;4.97;3.20;;;23.30;99.90;;;;;;5028481;28;20049;-83
2023/08/14 09:31:09;;;;;;;3.40;2.28;;;23.40;99.90;;;;;;5017653;28;20512;-85
2023/08/14 09:33:37;;;;;;;5.60;2.08;;;23.40;99.90;;;;;;5021448;28;20018;-84
2023/08/14 09:36:03;;;;;;;2.85;2.00;;;23.60;99.90;;;;;;5022514;28;20029;-84
2023/08/14 09:38:30;;;;;;;3.90;2.00;;;23.60;99.90;;;;;;5022008;28;20061;-85
2023/08/14 09:40:59;;;;;;;5.68;2.05;;;23.60;99.90;;;;;;5023010;28;20036;-83
2023/08/14 09:43:27;;;;;;;7.35;2.58;;;23.60;99.90;;;;;;5023622;28;20425;-84
2023/08/14 09:45:57;;;;;;;3.38;2.08;;;23.70;99.90;;;;;;5022778;28;20117;-83
2023/08/14 09:48:23;;;;;;;2.65;2.10;;;23.70;99.90;;;;;;5022909;28;20112;-85
2023/08/14 09:50:50;;;;;;;5.50;2.50;;;23.70;99.90;;;;;;5020424;28;20037;-84
2023/08/14 09:53:15;;;;;;;3.78;2.65;;;23.60;99.90;;;;;;5023146;28;20391;-84
2023/08/14 09:55:42;;;;;;;5.32;2.15;;;23.60;99.90;;;;;;5019806;28;20096;-84
2023/08/14 09:58:07;;;;;;;3.38;2.47;;;23.60;99.90;;;;;;5023173;28;20082;-85
2023/08/14 10:00:33;;;;;;;4.07;2.42;;;23.60;99.90;;;;;;5020653;28;20046;-85
2023/08/14 10:03:00;;;;;;;6.72;2.47;;;23.70;99.90;;;;;;5019813;28;20544;-84
2023/08/14 10:05:27;;;;;;;3.00;2.28;;;23.70;99.90;;;;;;5026487;28;20029;-84
2023/08/14 10:07:54;;;;;;;2.67;2.17;;;23.70;99.90;;;;;;5019455;28;20036;-85
2023/08/14 10:10:21;;;;;;;6.55;2.30;;;23.80;99.90;;;;;;5024632;28;20025;-85
2023/08/14 10:13:08;;;;;;;5.60;2.40;;;23.80;99.90;;;;;;5017224;28;20021;-85
2023/08/14 10:15:41;;;;;;;3.75;2.00;;;23.80;99.90;;;;;;5022570;28;20034;-84
2023/08/14 10:18:15;;;;;;;5.32;1.98;;;23.90;99.90;;;;;;5020400;28;20627;-83
2023/08/14 10:20:43;;;;;;;11.85;2.72;;;23.80;99.90;;;;;;5021820;28;20052;-85
2023/08/14 10:23:09;;;;;;;35.83;5.38;;;23.80;99.90;;;;;;5022952;28;20022;-84
2023/08/14 10:25:39;;;;;;;17.15;3.30;;;23.80;99.90;;;;;;5020425;28;20041;-85
2023/08/14 10:28:09;;;;;;;7.75;2.97;;;23.80;99.90;;;;;;5024917;28;20028;-84
2023/08/14 10:30:35;;;;;;;4.00;1.80;;;23.80;99.90;;;;;;5018430;28;20030;-85
2023/08/14 10:33:02;;;;;;;2.15;1.95;;;23.90;99.90;;;;;;5027174;28;20049;-83
2023/08/14 10:35:28;;;;;;;2.17;1.88;;;23.90;99.90;;;;;;5019010;28;20028;-84
2023/08/14 10:37:55;;;;;;;4.32;2.28;;;23.90;99.90;;;;;;5023994;28;20025;-83
2023/08/14 10:40:23;;;;;;;3.85;2.00;;;24.00;99.90;;;;;;5021517;28;20040;-84
2023/08/14 10:42:57;;;;;;;7.13;2.35;;;24.10;99.90;;;;;;5008340;28;20113;-85
2023/08/14 10:45:25;;;;;;;3.20;2.00;;;24.20;99.90;;;;;;5024411;28;20029;-85
2023/08/14 10:47:52;;;;;;;3.95;2.17;;;24.30;99.90;;;;;;5017309;28;20564;-84
2023/08/14 10:50:20;;;;;;;4.75;2.38;;;24.40;99.90;;;;;;5022904;28;20104;-85
2023/08/14 10:52:47;;;;;;;5.05;2.28;;;24.40;99.90;;;;;;5022975;28;20049;-84
2023/08/14 10:55:22;;;;;;;3.30;2.10;;;24.40;99.90;;;;;;5021596;28;20056;-84
2023/08/14 10:57:48;;;;;;;3.40;1.98;;;24.50;99.90;;;;;;5024533;28;20108;-85
2023/08/14 11:00:22;;;;;;;3.30;2.22;;;24.50;99.90;;;;;;5023935;28;20120;-85
2023/08/14 11:03:08;;;;;;;6.05;2.08;;;24.50;99.90;;;;;;5022829;28;20044;-83
2023/08/14 11:05:37;;;;;;;;;;;24.60;99.90;;;;;;5024172;28;20353;-84
2023/08/14 11:08:03;;;;;;;3.53;1.92;;;24.50;99.90;;;;;;5018511;28;20610;-83
2023/08/14 11:10:31;;;;;;;4.30;2.08;;;24.50;99.90;;;;;;5025828;28;20481;-84
2023/08/14 11:12:56;;;;;;;2.92;1.88;;;24.40;99.90;;;;;;5018665;28;20079;-85
2023/08/14 11:15:23;;;;;;;3.03;2.03;;;24.40;99.90;;;;;;5027603;28;20034;-85
2023/08/14 11:17:49;;;;;;;8.20;2.40;;;24.40;99.90;;;;;;5019427;28;20413;-85
2023/08/14 11:20:15;;;;;;;4.00;2.00;;;24.50;99.90;;;;;;5022039;28;20022;-85
2023/08/14 11:22:45;;;;;;;3.85;2.00;;;24.60;99.90;;;;;;5026396;28;20018;-85
2023/08/14 11:25:15;;;;;;;4.07;1.88;;;24.70;99.90;;;;;;5020685;28;20025;-83
2023/08/14 11:27:41;;;;;;;6.28;2.35;;;24.80;99.90;;;;;;5026016;28;20022;-83
2023/08/14 11:30:07;;;;;;;3.25;1.98;;;24.90;99.90;;;;;;5018397;28;20531;-83
2023/08/14 11:32:33;;;;;;;2.63;1.90;;;24.90;99.90;;;;;;5026431;28;20026;-84
2023/08/14 11:34:58;;;;;;;3.80;2.30;;;24.90;99.90;;;;;;5017993;28;20040;-84
2023/08/14 11:37:24;;;;;;;2.40;1.88;;;24.90;99.90;;;;;;5018842;28;20476;-85
2023/08/14 11:39:49;;;;;;;3.75;2.17;;;24.90;99.90;;;;;;5013032;28;20077;-85
2023/08/14 11:42:15;;;;;;;2.95;2.20;;;24.90;99.90;;;;;;5020822;28;20403;-84
2023/08/14 11:44:41;;;;;;;3.45;2.33;;;24.90;99.90;;;;;;5025633;28;20429;-85
2023/08/14 11:47:07;;;;;;;2.72;2.03;;;24.90;99.90;;;;;;5018751;28;20033;-83
2023/08/14 11:49:36;;;;;;;3.38;2.08;;;24.90;99.90;;;;;;5020053;28;20325;-84
2023/08/14 11:52:03;;;;;;;3.72;1.95;;;24.90;99.90;;;;;;5021101;28;20112;-84
2023/08/14 11:54:30;;;;;;;3.47;2.33;;;24.90;99.90;;;;;;5017716;28;20025;-82
2023/08/14 11:56:56;;;;;;;3.15;1.90;;;24.90;99.90;;;;;;5012464;28;20083;-84
2023/08/14 11:59:21;;;;;;;3.15;2.00;;;25.00;99.90;;;;;;5020154;28;20423;-84
2023/08/14 12:01:47;;;;;;;2.67;1.98;;;25.10;99.90;;;;;;5014650;28;20680;-83
2023/08/14 12:04:13;;;;;;;3.08;1.90;;;25.10;99.90;;;;;;5019695;28;20163;-84
2023/08/14 12:06:42;;;;;;;2.50;1.80;;;25.10;99.90;;;;;;5024646;28;20033;-85
2023/08/14 12:09:09;;;;;;;6.22;2.17;;;25.10;99.90;;;;;;5016432;28;20061;-84
2023/08/14 12:11:37;;;;;;;5.38;2.30;;;25.20;99.90;;;;;;5030927;28;20022;-83
2023/08/14 12:14:06;;;;;;;4.85;1.42;;;25.20;99.90;;;;;;5033901;28;20034;-85
2023/08/14 12:16:32;;;;;;;2.03;1.70;;;25.20;99.90;;;;;;5024897;28;20017;-84
2023/08/14 12:18:57;;;;;;;3.22;1.88;;;25.20;99.90;;;;;;5021259;28;20120;-85
2023/08/14 12:21:26;;;;;;;4.15;2.17;;;25.10;99.90;;;;;;5021500;28;20078;-84
2023/08/14 12:23:54;;;;;;;2.30;1.38;;;25.10;99.90;;;;;;5010413;28;20461;-85
2023/08/14 12:26:20;;;;;;;2.50;1.77;;;25.10;99.90;;;;;;5022037;28;20448;-83
2023/08/14 12:28:46;;;;;;;2.03;1.80;;;25.10;99.90;;;;;;5022446;28;20014;-84
2023/08/14 12:31:14;;;;;;;2.83;1.88;;;25.10;99.90;;;;;;5021403;28;20037;-83
2023/08/14 12:33:42;;;;;;;3.35;2.63;;;25.10;99.90;;;;;;5022814;28;20020;-84
2023/08/14 12:36:10;;;;;;;5.53;2.28;;;25.20;99.90;;;;;;5024341;28;20021;-85
2023/08/14 12:38:37;;;;;;;2.30;2.03;;;25.20;99.90;;;;;;5023867;28;20018;-83
2023/08/14 12:41:03;;;;;;;3.60;2.10;;;25.10;99.90;;;;;;5025655;28;20609;-85
2023/08/14 12:43:28;;;;;;;3.72;2.17;;;25.10;99.90;;;;;;5023524;28;20045;-83
2023/08/14 12:45:54;;;;;;;3.45;2.00;;;25.10;99.90;;;;;;5023711;28;20025;-83